createdAt,value
2023-04-20T00:02:17.064Z,29.17
2023-04-20T00:05:06.759Z,31.30
2023-04-20T00:07:54.907Z,30.17
2023-04-20T00:10:43.068Z,27.73
2023-04-20T00:13:30.483Z,31.73
2023-04-20T00:16:19.492Z,28.75
2023-04-20T00:19:08.283Z,30.42
2023-04-20T00:21:57.255Z,27.83
2023-04-20T00:24:44.976Z,34.25
2023-04-20T00:27:32.354Z,30.30
2023-04-20T00:30:19.878Z,29.75
2023-04-20T00:33:07.747Z,28.33
2023-04-20T00:35:56.832Z,30.67
2023-04-20T00:38:46.062Z,27.55
2023-04-20T00:41:33.772Z,27.70
2023-04-20T00:44:21.265Z,29.67
2023-04-20T00:47:08.583Z,26.25
2023-04-20T00:49:56.262Z,26.63
2023-04-20T00:52:44.259Z,25.05
2023-04-20T00:55:33.378Z,24.90
2023-04-20T00:58:20.862Z,24.58
2023-04-20T01:01:08.938Z,26.75
2023-04-20T01:03:56.681Z,26.63
2023-04-20T01:06:44.532Z,19.92
2023-04-20T01:09:32.313Z,27.52
2023-04-20T01:12:21.217Z,26.65
2023-04-20T01:15:09.808Z,30.40
2023-04-20T01:17:58.000Z,28.38
2023-04-20T01:20:47.166Z,29.02
2023-04-20T01:23:37.623Z,26.83
2023-04-20T01:26:25.867Z,31.08
2023-04-20T01:29:13.334Z,34.42
2023-04-20T01:32:00.975Z,32.10
2023-04-20T01:34:48.351Z,29.30
2023-04-20T01:37:37.297Z,30.05
2023-04-20T01:40:26.257Z,30.40
2023-04-20T01:43:13.902Z,28.27
2023-04-20T01:46:02.236Z,29.98
2023-04-20T01:48:49.648Z,31.15
2023-04-20T01:51:37.320Z,28.40
2023-04-20T01:54:24.784Z,26.25
2023-04-20T01:57:13.984Z,27.88
2023-04-20T02:00:02.279Z,28.95
2023-04-20T02:02:50.025Z,29.55
2023-04-20T02:05:37.527Z,25.45
2023-04-20T02:08:25.197Z,28.30
2023-04-20T02:11:12.957Z,28.95
2023-04-20T02:14:01.973Z,28.67
2023-04-20T02:16:49.825Z,28.90
2023-04-20T02:19:37.454Z,28.02
2023-04-20T02:22:24.941Z,31.73
2023-04-20T02:25:12.767Z,28.80
2023-04-20T02:28:00.246Z,29.67
2023-04-20T02:30:49.133Z,30.30
2023-04-20T02:33:37.185Z,30.73
2023-04-20T02:36:24.619Z,33.20
2023-04-20T02:39:12.266Z,32.30
2023-04-20T02:41:59.793Z,29.30
2023-04-20T02:44:47.577Z,31.60
2023-04-20T02:47:37.604Z,32.30
2023-04-20T02:50:25.362Z,31.65
2023-04-20T02:53:28.745Z,30.52
2023-04-20T02:56:31.005Z,29.05
2023-04-20T02:59:22.907Z,28.40
2023-04-20T03:02:24.441Z,28.55
2023-04-20T03:05:14.121Z,28.63
2023-04-20T03:08:07.019Z,28.55
2023-04-20T03:10:54.869Z,27.23
2023-04-20T03:13:42.762Z,25.02
2023-04-20T03:16:31.044Z,30.02
2023-04-20T03:19:19.234Z,25.15
2023-04-20T03:22:08.569Z,31.98
2023-04-20T03:24:57.278Z,30.27
2023-04-20T03:28:05.396Z,37.55
2023-04-20T03:30:53.088Z,35.70
2023-04-20T03:33:40.934Z,40.17
2023-04-20T03:36:29.534Z,35.05
2023-04-20T03:39:19.839Z,39.28
2023-04-20T03:42:07.793Z,35.35
2023-04-20T03:44:55.436Z,36.88
2023-04-20T03:47:43.251Z,38.50
2023-04-20T03:50:30.979Z,38.65
2023-04-20T03:53:18.896Z,37.45
2023-04-20T03:56:08.569Z,41.33
2023-04-20T03:58:56.720Z,44.08
2023-04-20T04:01:46.977Z,37.47
2023-04-20T04:04:34.791Z,41.80
2023-04-20T04:07:22.479Z,39.28
2023-04-20T04:10:12.386Z,40.58
2023-04-20T04:13:01.940Z,44.50
2023-04-20T04:15:49.831Z,42.13
2023-04-20T04:18:38.119Z,45.63
2023-04-20T04:21:30.942Z,41.25
2023-04-20T04:24:24.372Z,44.42
2023-04-20T04:27:22.463Z,45.55
2023-04-20T04:30:20.952Z,45.38
2023-04-20T04:33:10.329Z,50.22
2023-04-20T04:36:00.544Z,55.00
2023-04-20T04:38:49.139Z,47.47
2023-04-20T04:41:37.598Z,50.63
2023-04-20T04:44:35.726Z,50.38
2023-04-20T04:47:24.993Z,51.38
2023-04-20T04:50:13.512Z,52.28
2023-04-20T04:53:01.393Z,49.03
2023-04-20T04:55:49.112Z,49.22
2023-04-20T04:58:36.589Z,51.00
2023-04-20T05:01:24.494Z,48.53
2023-04-20T05:04:13.676Z,49.55
2023-04-20T05:07:01.323Z,52.30
2023-04-20T05:09:48.692Z,51.22
2023-04-20T05:12:36.516Z,47.65
2023-04-20T05:15:24.336Z,49.33
2023-04-20T05:18:11.954Z,48.25
2023-04-20T05:21:01.065Z,53.55
2023-04-20T05:23:48.441Z,50.70
2023-04-20T05:26:35.977Z,48.42
2023-04-20T05:29:23.651Z,50.63
2023-04-20T05:32:11.246Z,53.92
2023-04-20T05:34:59.175Z,48.17
2023-04-20T05:37:48.654Z,48.72
2023-04-20T05:40:36.576Z,45.38
2023-04-20T05:43:24.236Z,50.53
2023-04-20T05:46:11.782Z,46.38
2023-04-20T05:48:59.627Z,48.10
2023-04-20T05:51:47.130Z,49.30
2023-04-20T05:54:35.926Z,48.22
2023-04-20T05:57:24.658Z,45.55
2023-04-20T06:00:14.336Z,49.50
2023-04-20T06:03:02.113Z,47.47
2023-04-20T06:05:50.060Z,48.25
2023-04-20T06:08:37.896Z,47.53
2023-04-20T06:11:26.989Z,47.97
2023-04-20T06:14:15.106Z,48.60
2023-04-20T06:17:02.747Z,53.30
2023-04-20T06:19:50.384Z,48.92
2023-04-20T06:22:38.669Z,46.70
2023-04-20T06:25:26.501Z,53.33
2023-04-20T06:28:15.272Z,50.20
2023-04-20T06:31:02.907Z,49.55
2023-04-20T06:33:50.649Z,51.42
2023-04-20T06:36:38.472Z,52.78
2023-04-20T06:39:25.918Z,51.17
2023-04-20T06:42:13.959Z,54.17
2023-04-20T06:45:03.159Z,55.80
2023-04-20T06:47:51.087Z,48.60
2023-04-20T06:50:38.627Z,51.08
2023-04-20T06:53:26.318Z,50.63
2023-04-20T06:56:13.843Z,55.78
2023-04-20T06:59:01.629Z,53.78
2023-04-20T07:01:50.763Z,50.80
2023-04-20T07:04:38.405Z,49.78
2023-04-20T07:07:25.909Z,49.22
2023-04-20T07:10:15.459Z,47.47
2023-04-20T07:13:03.181Z,54.50
2023-04-20T07:15:51.287Z,45.33
2023-04-20T07:18:40.337Z,50.42
2023-04-20T07:21:28.180Z,51.95
2023-04-20T07:24:15.971Z,46.42
2023-04-20T07:27:03.854Z,50.42
2023-04-20T07:29:51.426Z,46.90
2023-04-20T07:32:40.096Z,50.92
2023-04-20T07:35:29.116Z,48.78
2023-04-20T07:38:17.268Z,44.63
2023-04-20T07:41:04.874Z,48.30
2023-04-20T07:43:52.793Z,48.20
2023-04-20T07:46:40.684Z,48.25
2023-04-20T07:49:28.466Z,46.10
2023-04-20T07:52:18.329Z,46.42
2023-04-20T07:55:08.244Z,43.25
2023-04-20T07:57:55.836Z,45.17
2023-04-20T08:00:43.466Z,43.10
2023-04-20T08:03:31.081Z,47.10
2023-04-20T08:06:20.022Z,39.55
2023-04-20T08:09:10.862Z,48.10
2023-04-20T08:12:00.706Z,40.97
2023-04-20T08:14:48.559Z,45.53
2023-04-20T08:17:36.403Z,46.22
2023-04-20T08:20:23.988Z,47.97
2023-04-20T08:23:11.554Z,47.35
2023-04-20T08:26:00.541Z,46.00
2023-04-20T08:28:50.461Z,41.75
2023-04-20T08:31:38.248Z,51.38
2023-04-20T08:34:26.302Z,45.47
2023-04-20T08:37:14.122Z,47.58
2023-04-20T08:40:01.713Z,44.95
2023-04-20T08:42:50.737Z,45.15
2023-04-20T08:45:38.651Z,42.33
2023-04-20T08:48:27.502Z,41.83
2023-04-20T08:51:17.229Z,47.08
2023-04-20T08:54:06.774Z,46.30
2023-04-20T08:56:55.710Z,45.38
2023-04-20T08:59:44.722Z,44.55
2023-04-20T09:02:32.712Z,42.70
2023-04-20T09:05:28.293Z,43.28
2023-04-20T09:08:15.899Z,45.08
2023-04-20T09:11:03.475Z,44.17
2023-04-20T09:14:01.920Z,43.80
2023-04-20T09:17:00.792Z,43.53
2023-04-20T09:19:54.785Z,45.35
2023-04-20T09:22:43.993Z,43.42
2023-04-20T09:25:33.977Z,44.78
2023-04-20T09:28:22.168Z,39.97
2023-04-20T09:31:19.423Z,40.35
2023-04-20T09:36:55.988Z,38.30
2023-04-20T09:39:45.064Z,43.13
2023-04-20T09:42:36.971Z,36.85
2023-04-20T09:45:26.214Z,37.35
2023-04-20T09:48:18.932Z,42.22
2023-04-20T09:51:08.747Z,40.20
2023-04-20T09:53:58.082Z,41.78
2023-04-20T09:56:47.217Z,41.28
2023-04-20T09:59:35.167Z,38.63
2023-04-20T10:02:22.797Z,39.35
2023-04-20T10:05:11.142Z,40.53
2023-04-20T10:08:02.471Z,39.25
2023-04-20T10:10:51.550Z,43.47
2023-04-20T10:13:39.396Z,40.95
2023-04-20T10:16:27.545Z,39.40
2023-04-20T10:19:15.273Z,42.13
2023-04-20T10:22:03.026Z,41.08
2023-04-20T10:24:52.205Z,40.10
2023-04-20T10:27:40.122Z,38.83
2023-04-20T10:30:28.557Z,36.70
2023-04-20T10:33:15.965Z,38.40
2023-04-20T10:36:03.496Z,34.05
2023-04-20T10:38:52.426Z,40.10
2023-04-20T10:41:53.305Z,37.97
2023-04-20T10:44:49.381Z,41.58
2023-04-20T10:47:38.127Z,41.80
2023-04-20T10:50:27.873Z,35.15
2023-04-20T10:53:22.873Z,37.28
2023-04-20T10:56:11.126Z,37.33
2023-04-20T10:59:09.679Z,36.60
2023-04-20T11:02:00.136Z,36.08
2023-04-20T11:04:47.725Z,36.00
2023-04-20T11:07:35.362Z,35.10
2023-04-20T11:10:24.793Z,41.15
2023-04-20T11:13:22.383Z,35.40
2023-04-20T11:16:13.763Z,37.92
2023-04-20T11:19:01.618Z,35.35
2023-04-20T11:21:48.983Z,32.50
2023-04-20T11:24:37.492Z,33.63
2023-04-20T11:27:24.905Z,33.88
2023-04-20T11:30:13.134Z,38.65
2023-04-20T11:33:02.465Z,32.92
2023-04-20T11:35:50.351Z,31.38
2023-04-20T11:38:38.256Z,33.17
2023-04-20T11:41:25.956Z,33.80
2023-04-20T11:44:15.191Z,31.65
2023-04-20T11:47:04.223Z,35.15
2023-04-20T11:49:53.301Z,32.58
2023-04-20T11:52:40.820Z,29.98
2023-04-20T11:55:28.815Z,30.73
2023-04-20T11:58:16.518Z,31.48
2023-04-20T12:01:05.500Z,30.73
2023-04-20T12:03:55.771Z,32.08
2023-04-20T12:06:45.071Z,28.60
2023-04-20T12:09:36.216Z,29.52
2023-04-20T12:12:23.803Z,25.27
2023-04-20T12:15:12.669Z,28.00
2023-04-20T12:18:00.288Z,27.60
2023-04-20T12:20:50.175Z,28.15
2023-04-20T12:23:39.276Z,26.05
2023-04-20T12:26:37.387Z,29.00
2023-04-20T12:29:26.165Z,25.77
2023-04-20T12:32:13.423Z,29.52
2023-04-20T12:35:03.954Z,29.58
2023-04-20T12:37:51.441Z,27.30
2023-04-20T12:40:40.785Z,29.38
2023-04-20T12:43:28.646Z,23.10
2023-04-20T12:46:16.147Z,28.15
2023-04-20T12:49:03.743Z,28.23
2023-04-20T12:51:51.392Z,27.85
2023-04-20T12:54:39.273Z,30.83
2023-04-20T12:57:28.073Z,30.15
2023-04-20T13:00:16.621Z,27.65
2023-04-20T13:03:04.390Z,28.73
2023-04-20T13:05:52.384Z,30.15
2023-04-20T13:08:40.055Z,31.17
2023-04-20T13:11:27.446Z,30.02
2023-04-20T13:14:18.738Z,27.95
2023-04-20T13:17:07.040Z,27.25
2023-04-20T13:19:54.546Z,19.48
2023-04-20T13:22:50.819Z,21.63
2023-04-20T13:25:44.953Z,20.67
2023-04-20T13:28:32.503Z,15.90
2023-04-20T13:31:21.489Z,28.25
2023-04-20T13:34:09.360Z,17.05
2023-04-20T13:36:58.338Z,17.63
2023-04-20T13:39:45.876Z,13.13
2023-04-20T13:42:36.218Z,11.50
2023-04-20T13:45:24.207Z,12.05
2023-04-20T13:48:13.104Z,13.63
2023-04-20T13:51:00.765Z,10.98
2023-04-20T13:53:49.241Z,13.50
2023-04-20T13:56:36.946Z,17.42
2023-04-20T13:59:24.612Z,12.88
2023-04-20T14:02:12.403Z,12.10
2023-04-20T14:05:03.085Z,11.57
2023-04-20T14:07:50.640Z,11.90
2023-04-20T14:10:39.680Z,10.13
2023-04-20T14:13:27.459Z,13.05
2023-04-20T14:16:15.627Z,12.23
2023-04-20T14:19:03.272Z,10.38
2023-04-20T14:21:52.372Z,12.10
2023-04-20T14:24:40.893Z,9.77
2023-04-20T14:27:28.616Z,11.57
2023-04-20T14:30:16.609Z,9.57
2023-04-20T14:33:06.655Z,8.00
2023-04-20T14:35:54.264Z,12.80
2023-04-20T14:38:43.573Z,9.48
2023-04-20T14:41:33.579Z,11.68
2023-04-20T14:44:22.130Z,9.02
2023-04-20T14:47:09.749Z,16.27
2023-04-20T14:49:57.364Z,13.52
2023-04-20T14:52:44.922Z,10.60
2023-04-20T14:55:34.120Z,14.45
2023-04-20T14:58:22.371Z,11.48
2023-04-20T15:01:10.060Z,11.82
2023-04-20T15:03:57.767Z,14.35
2023-04-20T15:06:45.693Z,9.57
2023-04-20T15:09:33.852Z,6.47
2023-04-20T15:12:22.904Z,9.50
2023-04-20T15:15:11.260Z,11.82
2023-04-20T15:17:59.046Z,12.40
2023-04-20T15:20:46.951Z,11.43
2023-04-20T15:23:34.566Z,14.02
2023-04-20T15:26:22.533Z,10.95
2023-04-20T15:29:11.883Z,12.25
2023-04-20T15:31:59.634Z,13.55
2023-04-20T15:34:47.887Z,7.82
2023-04-20T15:37:35.423Z,12.60
2023-04-20T15:40:23.467Z,12.93
2023-04-20T15:43:10.871Z,13.40
2023-04-20T15:45:59.855Z,10.45
2023-04-20T15:48:47.288Z,13.40
2023-04-20T15:51:35.016Z,12.90
2023-04-20T15:54:23.865Z,12.35
2023-04-20T15:57:11.139Z,10.68
2023-04-20T15:59:58.898Z,10.98
2023-04-20T16:02:48.132Z,15.38
2023-04-20T16:05:36.246Z,12.55
2023-04-20T16:08:23.781Z,10.40
2023-04-20T16:11:11.490Z,13.60
2023-04-20T16:13:59.173Z,12.30
2023-04-20T16:16:46.921Z,14.02
2023-04-20T16:19:36.126Z,17.40
2023-04-20T16:22:23.785Z,14.75
2023-04-20T16:25:12.433Z,13.15
2023-04-20T16:28:00.250Z,14.38
2023-04-20T16:30:48.037Z,13.88
2023-04-20T16:33:36.898Z,13.68
2023-04-20T16:36:27.762Z,11.52
2023-04-20T16:39:15.743Z,15.13
2023-04-20T16:42:03.120Z,13.48
2023-04-20T16:44:50.648Z,14.55
2023-04-20T16:47:38.553Z,12.38
2023-04-20T16:50:26.725Z,12.43
2023-04-20T16:53:16.050Z,10.73
2023-04-20T16:56:03.605Z,11.38
2023-04-20T16:58:51.025Z,8.63
2023-04-20T17:01:38.605Z,12.32
2023-04-20T17:04:26.715Z,12.90
2023-04-20T17:07:14.404Z,13.80
2023-04-20T17:10:03.589Z,15.88
2023-04-20T17:12:51.671Z,13.35
2023-04-20T17:15:40.455Z,17.40
2023-04-20T17:18:27.880Z,14.85
2023-04-20T17:21:15.311Z,16.50
2023-04-20T17:24:03.217Z,14.40
2023-04-20T17:26:53.159Z,12.77
2023-04-20T17:29:43.126Z,15.40
2023-04-20T17:32:30.947Z,11.80
2023-04-20T17:35:18.691Z,11.02
2023-04-20T17:38:06.712Z,10.73
2023-04-20T17:40:54.202Z,20.95
2023-04-20T17:43:43.076Z,14.07
2023-04-20T17:46:30.606Z,15.00
2023-04-20T17:49:18.095Z,13.90
2023-04-20T17:52:05.863Z,12.55
2023-04-20T17:54:54.416Z,15.02
2023-04-20T17:57:42.311Z,18.13
2023-04-20T18:00:31.483Z,10.38
2023-04-20T18:03:20.174Z,16.60
2023-04-20T18:06:08.394Z,13.27
2023-04-20T18:08:56.984Z,13.40
2023-04-20T18:11:45.122Z,12.00
2023-04-20T18:14:32.629Z,15.27
2023-04-20T18:17:21.813Z,13.68
2023-04-20T18:20:09.761Z,18.17
2023-04-20T18:22:57.757Z,16.85
2023-04-20T18:25:45.340Z,15.40
2023-04-20T18:28:34.302Z,18.17
2023-04-20T18:31:22.099Z,16.95
2023-04-20T18:34:12.843Z,17.42
2023-04-20T18:37:00.333Z,14.43
2023-04-20T18:39:48.144Z,16.15
2023-04-20T18:42:36.007Z,15.80
2023-04-20T18:45:24.643Z,15.75
2023-04-20T18:48:12.814Z,17.30
2023-04-20T18:51:01.902Z,15.75
2023-04-20T18:53:49.474Z,12.27
2023-04-20T18:56:38.787Z,15.60
2023-04-20T18:59:26.367Z,14.38
2023-04-20T19:02:14.217Z,14.75
2023-04-20T19:05:02.099Z,13.18
2023-04-20T19:07:50.892Z,16.10
2023-04-20T19:10:38.641Z,15.77
2023-04-20T19:13:26.394Z,17.02
2023-04-20T19:16:14.242Z,14.38
2023-04-20T19:19:03.032Z,11.75
2023-04-20T19:21:50.909Z,14.50
2023-04-20T19:24:39.746Z,20.00
2023-04-20T19:27:27.723Z,20.08
2023-04-20T19:30:15.334Z,12.75
2023-04-20T19:33:05.012Z,19.35
2023-04-20T19:35:52.776Z,21.58
2023-04-20T19:38:40.629Z,16.92
2023-04-20T19:41:29.713Z,14.07
2023-04-20T19:44:18.074Z,22.85
2023-04-20T19:47:05.728Z,15.55
2023-04-20T19:49:53.496Z,11.43
2023-04-20T19:52:41.049Z,13.77
2023-04-20T19:55:28.791Z,13.82
2023-04-20T19:58:17.716Z,12.50
2023-04-20T20:01:05.831Z,12.45
2023-04-20T20:03:53.710Z,11.88
2023-04-20T20:06:43.967Z,14.35
2023-04-20T20:09:31.668Z,17.35
2023-04-20T20:12:19.425Z,13.65
2023-04-20T20:15:09.364Z,15.18
2023-04-20T20:17:58.769Z,16.17
2023-04-20T20:20:46.373Z,16.75
2023-04-20T20:23:33.898Z,15.13
2023-04-20T20:26:21.850Z,19.15
2023-04-20T20:29:09.722Z,18.15
2023-04-20T20:31:58.398Z,20.15
2023-04-20T20:34:46.020Z,22.90
2023-04-20T20:37:34.878Z,19.10
2023-04-20T20:40:22.444Z,18.77
2023-04-20T20:43:10.773Z,17.67
2023-04-20T20:45:58.789Z,23.48
2023-04-20T20:48:47.638Z,18.17
2023-04-20T20:51:35.056Z,18.08
2023-04-20T20:54:22.439Z,18.67
2023-04-20T20:57:10.271Z,18.52
2023-04-20T20:59:57.844Z,20.92
2023-04-20T21:02:45.376Z,18.15
2023-04-20T21:05:35.670Z,20.75
2023-04-20T21:08:23.189Z,21.00
2023-04-20T21:11:10.863Z,19.95
2023-04-20T21:14:01.769Z,19.10
2023-04-20T21:16:49.905Z,25.88
2023-04-20T21:19:37.381Z,25.65
2023-04-20T21:22:26.353Z,19.73
2023-04-20T21:25:13.891Z,22.85
2023-04-20T21:28:03.376Z,27.60
2023-04-20T21:30:50.913Z,20.33
2023-04-20T21:33:38.378Z,27.77
2023-04-20T21:36:26.149Z,23.58
2023-04-20T21:39:15.424Z,22.73
2023-04-20T21:42:03.340Z,26.98
2023-04-20T21:44:51.209Z,26.92
2023-04-20T21:47:38.767Z,24.00
2023-04-20T21:50:27.684Z,24.10
2023-04-20T21:53:15.677Z,25.67
2023-04-20T21:56:04.937Z,25.30
2023-04-20T21:58:52.495Z,28.55
2023-04-20T22:01:40.392Z,22.38
2023-04-20T22:04:28.745Z,25.20
2023-04-20T22:07:17.691Z,22.20
2023-04-20T22:10:06.191Z,30.83
2023-04-20T22:12:55.468Z,30.58
2023-04-20T22:15:43.488Z,34.33
2023-04-20T22:18:31.219Z,25.40
2023-04-20T22:21:19.217Z,24.90
2023-04-20T22:24:07.001Z,22.08
2023-04-20T22:26:54.502Z,23.30
2023-04-20T22:29:43.564Z,23.25
2023-04-20T22:32:33.853Z,21.80
2023-04-20T22:35:21.733Z,21.60
2023-04-20T22:38:09.444Z,20.00
2023-04-20T22:40:57.030Z,26.63
2023-04-20T22:43:44.509Z,23.25
2023-04-20T22:46:33.539Z,21.52
2023-04-20T22:49:21.174Z,27.08
2023-04-20T22:52:09.043Z,22.73
2023-04-20T22:54:56.682Z,24.67
2023-04-20T22:57:44.161Z,20.40
2023-04-20T23:00:32.261Z,25.02
2023-04-20T23:03:21.294Z,29.38
2023-04-20T23:06:08.875Z,25.17
2023-04-20T23:08:59.208Z,29.02
2023-04-20T23:11:47.160Z,25.10
2023-04-20T23:14:36.998Z,20.77
2023-04-20T23:17:24.717Z,27.23
2023-04-20T23:20:15.244Z,24.55
2023-04-20T23:23:02.623Z,23.83
2023-04-20T23:25:49.951Z,28.05
2023-04-20T23:28:37.506Z,27.88
2023-04-20T23:31:25.171Z,22.55
2023-04-20T23:34:12.691Z,34.33
2023-04-20T23:37:01.641Z,27.55
2023-04-20T23:39:49.200Z,24.73
2023-04-20T23:42:37.489Z,26.33
2023-04-20T23:45:25.681Z,30.23
2023-04-20T23:48:13.157Z,30.15
2023-04-20T23:51:00.844Z,34.63
2023-04-20T23:53:49.660Z,32.15
2023-04-20T23:56:37.044Z,25.58
2023-04-20T23:59:24.434Z,27.48
